createdAt,value
2023-08-07T00:03:45.110Z,98795.20
2023-08-07T00:08:49.380Z,98800.00
2023-08-07T00:13:50.589Z,98797.40
2023-08-07T00:19:03.246Z,98793.40
2023-08-07T00:24:09.060Z,98788.40
2023-08-07T00:29:10.453Z,98796.00
2023-08-07T00:34:12.462Z,98776.60
2023-08-07T00:39:13.829Z,98767.80
2023-08-07T00:44:15.075Z,98751.40
2023-08-07T00:49:22.172Z,98757.40
2023-08-07T00:54:25.676Z,98751.60
2023-08-07T00:59:35.586Z,98753.00
2023-08-07T01:04:36.929Z,98766.00
2023-08-07T01:09:38.774Z,98765.20
2023-08-07T01:15:24.615Z,98764.00
2023-08-07T01:20:29.062Z,98751.60
2023-08-07T01:25:33.992Z,98743.00
2023-08-07T01:30:45.041Z,98741.40
2023-08-07T01:35:56.078Z,98745.00
2023-08-07T01:40:59.000Z,98763.60
2023-08-07T01:46:00.317Z,98767.40
2023-08-07T01:51:01.738Z,98770.60
2023-08-07T01:56:07.379Z,98780.60
2023-08-07T02:01:08.655Z,98777.40
2023-08-07T02:06:11.976Z,98773.40
2023-08-07T02:11:15.018Z,98769.40
2023-08-07T02:16:16.294Z,98784.80
2023-08-07T02:21:19.588Z,98788.80
2023-08-07T02:26:20.902Z,98790.80
2023-08-07T02:31:25.160Z,98801.20
2023-08-07T02:36:35.430Z,98797.00
2023-08-07T02:41:36.633Z,98781.20
2023-08-07T02:46:37.854Z,98770.60
2023-08-07T02:51:39.119Z,98762.60
2023-08-07T02:56:41.557Z,98793.00
2023-08-07T03:01:51.944Z,98795.40
2023-08-07T03:06:56.112Z,98809.40
2023-08-07T03:12:03.414Z,98812.20
2023-08-07T03:17:05.823Z,98787.80
2023-08-07T03:22:07.087Z,98791.40
2023-08-07T03:27:08.428Z,98785.80
2023-08-07T03:32:11.742Z,98799.20
2023-08-07T03:37:15.686Z,98797.00
2023-08-07T03:42:17.118Z,98805.00
2023-08-07T03:47:21.240Z,98831.20
2023-08-07T03:52:24.802Z,98836.00
2023-08-07T03:57:27.455Z,98834.80
2023-08-07T04:02:29.740Z,98846.00
2023-08-07T04:07:32.891Z,98847.60
2023-08-07T04:12:34.423Z,98855.40
2023-08-07T04:17:36.921Z,98841.00
2023-08-07T04:22:38.940Z,98839.00
2023-08-07T04:27:41.865Z,98844.80
2023-08-07T04:32:43.068Z,98857.40
2023-08-07T04:37:45.551Z,98856.60
2023-08-07T04:42:46.845Z,98846.20
2023-08-07T04:47:48.282Z,98851.40
2023-08-07T04:52:49.628Z,98871.60
2023-08-07T04:57:54.572Z,98858.20
2023-08-07T05:02:56.088Z,98864.80
2023-08-07T05:07:59.580Z,98862.00
2023-08-07T05:13:03.692Z,98872.40
2023-08-07T05:18:04.924Z,98883.00
2023-08-07T05:23:17.985Z,98867.00
2023-08-07T05:28:19.289Z,98851.00
2023-08-07T05:33:20.851Z,98884.20
2023-08-07T05:38:22.352Z,98873.80
2023-08-07T05:43:23.769Z,98885.00
2023-08-07T05:48:25.475Z,98888.80
2023-08-07T05:53:26.811Z,98898.20
2023-08-07T05:58:28.246Z,98903.60
2023-08-07T06:03:29.613Z,98898.60
2023-08-07T06:08:30.966Z,98883.40
2023-08-07T06:13:36.523Z,98907.20
2023-08-07T06:18:38.647Z,98916.00
2023-08-07T06:23:43.015Z,98914.60
2023-08-07T06:30:02.439Z,98927.00
2023-08-07T06:36:31.071Z,98935.80
2023-08-07T06:41:32.524Z,98920.00
2023-08-07T06:46:34.935Z,98922.40
2023-08-07T06:51:38.534Z,98922.00
2023-08-07T06:56:44.530Z,98932.40
2023-08-07T07:14:42.028Z,98925.40
2023-08-07T07:19:43.369Z,98928.60
2023-08-07T07:24:44.645Z,98934.20
2023-08-07T07:29:49.127Z,98943.00
2023-08-07T07:36:02.102Z,98946.60
2023-08-07T07:46:56.409Z,98966.40
2023-08-07T07:51:57.942Z,98963.80
2023-08-07T07:56:59.538Z,98954.60
2023-08-07T08:02:07.268Z,98940.80
2023-08-07T08:07:13.070Z,98927.60
2023-08-07T08:12:20.234Z,98929.40
2023-08-07T08:17:21.590Z,98948.40
2023-08-07T08:22:27.374Z,98967.20
2023-08-07T08:27:32.237Z,98972.80
2023-08-07T08:32:33.988Z,98990.60
2023-08-07T08:37:36.939Z,98986.80
2023-08-07T08:44:15.124Z,98979.20
2023-08-07T08:49:32.913Z,98984.40
2023-08-07T08:54:35.579Z,99012.40
2023-08-07T08:59:39.021Z,99013.60
2023-08-07T09:04:42.547Z,99014.60
2023-08-07T09:09:45.497Z,99015.20
2023-08-07T09:14:55.947Z,99017.20
2023-08-07T09:19:58.528Z,99033.20
2023-08-07T09:25:00.575Z,99044.60
2023-08-07T09:30:03.048Z,99031.80
2023-08-07T09:35:27.494Z,99031.00
2023-08-07T09:40:58.718Z,99032.80
2023-08-07T09:46:20.116Z,99030.00
2023-08-07T09:51:21.957Z,99044.60
2023-08-07T09:56:25.682Z,99055.80
2023-08-07T10:01:26.961Z,99063.20
2023-08-07T10:06:28.600Z,99061.80
2023-08-07T10:11:33.426Z,99066.60
2023-08-07T10:16:41.658Z,99084.20
2023-08-07T10:21:44.146Z,99083.40
2023-08-07T10:26:56.916Z,99079.40
2023-08-07T10:32:04.022Z,99094.80
2023-08-07T10:37:10.419Z,99105.80
2023-08-07T10:42:12.506Z,99112.80
2023-08-07T10:47:13.731Z,99113.40
2023-08-07T10:52:15.946Z,99106.60
2023-08-07T10:57:26.235Z,99116.40
2023-08-07T11:02:30.811Z,99112.60
2023-08-07T11:07:32.390Z,99113.60
2023-08-07T11:12:33.744Z,99107.20
2023-08-07T11:17:35.084Z,99101.20
2023-08-07T11:22:45.532Z,99081.80
2023-08-07T11:27:47.080Z,99087.40
2023-08-07T11:32:58.264Z,99102.60
2023-08-07T11:38:08.527Z,99109.80
2023-08-07T11:43:12.674Z,99117.60
2023-08-07T11:48:13.953Z,99127.60
2023-08-07T11:53:18.713Z,99123.80
2023-08-07T11:58:21.118Z,99110.00
2023-08-07T12:03:34.445Z,99129.80
2023-08-07T12:08:42.851Z,99140.80
2023-08-07T12:13:46.071Z,99159.40
2023-08-07T12:18:50.137Z,99158.80
2023-08-07T12:23:55.059Z,99151.60
2023-08-07T12:28:56.427Z,99148.40
2023-08-07T12:39:22.112Z,99148.00
2023-08-07T12:44:27.297Z,99150.60
2023-08-07T12:49:32.637Z,99157.60
2023-08-07T12:54:35.283Z,99162.00
2023-08-07T12:59:36.511Z,99168.40
2023-08-07T13:04:37.852Z,99175.40
2023-08-07T13:09:39.143Z,99181.20
2023-08-07T13:14:40.320Z,99194.00
2023-08-07T13:19:42.002Z,99204.40
2023-08-07T13:24:43.728Z,99221.60
2023-08-07T13:29:48.577Z,99235.80
2023-08-07T13:34:51.463Z,99231.60
2023-08-07T13:39:54.819Z,99224.80
2023-08-07T13:44:56.575Z,99232.80
2023-08-07T13:50:00.521Z,99217.60
2023-08-07T13:55:01.860Z,99210.60
2023-08-07T14:00:18.430Z,99217.40
2023-08-07T14:05:24.223Z,99216.40
2023-08-07T14:10:25.667Z,99238.20
2023-08-07T14:15:27.591Z,99252.40
2023-08-07T14:20:29.148Z,99269.80
2023-08-07T14:25:33.074Z,99267.60
2023-08-07T14:30:36.435Z,99286.80
2023-08-07T14:35:39.846Z,99275.60
2023-08-07T14:40:42.761Z,99279.00
2023-08-07T14:45:45.624Z,99271.40
2023-08-07T14:50:47.081Z,99261.00
2023-08-07T14:55:48.355Z,99266.60
2023-08-07T15:00:50.707Z,99269.40
2023-08-07T15:05:59.644Z,99260.40
2023-08-07T15:11:06.017Z,99259.40
2023-08-07T15:16:13.516Z,99257.00
2023-08-07T15:21:16.119Z,99252.60
2023-08-07T15:26:17.527Z,99260.80
2023-08-07T15:31:19.134Z,99253.60
2023-08-07T15:36:25.218Z,99234.80
2023-08-07T15:41:33.593Z,99231.60
2023-08-07T15:46:35.495Z,99235.20
2023-08-07T15:51:36.804Z,99243.20
2023-08-07T15:56:38.044Z,99240.20
2023-08-07T16:01:42.019Z,99247.60
2023-08-07T16:06:46.940Z,99255.20
2023-08-07T16:11:48.830Z,99266.40
2023-08-07T16:16:52.520Z,99275.60
2023-08-07T16:21:56.482Z,99285.60
2023-08-07T16:26:58.095Z,99291.40
2023-08-07T16:32:06.610Z,99287.00
2023-08-07T16:37:07.948Z,99289.00
2023-08-07T16:42:09.297Z,99300.20
2023-08-07T16:47:10.612Z,99301.40
2023-08-07T16:52:12.039Z,99307.80
2023-08-07T16:57:14.501Z,99316.80
2023-08-07T17:02:16.188Z,99318.20
2023-08-07T17:07:17.581Z,99319.60
2023-08-07T17:12:20.221Z,99329.40
2023-08-07T17:17:24.651Z,99329.40
2023-08-07T17:22:25.959Z,99336.40
2023-08-07T17:27:30.377Z,99338.40
2023-08-07T17:32:39.132Z,99334.60
2023-08-07T17:37:40.393Z,99339.60
2023-08-07T17:42:46.162Z,99342.80
2023-08-07T17:47:47.864Z,99342.60
2023-08-07T17:52:52.924Z,99344.40
2023-08-07T17:57:54.726Z,99343.20
2023-08-07T18:02:56.143Z,99345.40
2023-08-07T18:07:57.733Z,99349.40
2023-08-07T18:13:00.183Z,99352.00
2023-08-07T18:18:01.471Z,99354.80
2023-08-07T18:23:05.262Z,99348.40
2023-08-07T18:28:09.586Z,99350.20
2023-08-07T18:33:14.809Z,99354.20
2023-08-07T18:38:16.908Z,99358.20
2023-08-07T18:43:20.745Z,99366.00
2023-08-07T18:48:24.164Z,99365.40
2023-08-07T18:53:28.143Z,99370.20
2023-08-07T18:59:09.349Z,99371.20
2023-08-07T19:05:26.144Z,99374.20
2023-08-07T19:10:29.406Z,99367.20
2023-08-07T19:16:55.434Z,99364.60
2023-08-07T19:35:29.177Z,99365.40
2023-08-07T19:40:34.473Z,99377.60
2023-08-07T19:45:37.212Z,99371.80
2023-08-07T19:50:39.954Z,99377.00
2023-08-07T19:55:45.039Z,99382.40
2023-08-07T20:00:49.713Z,99366.00
2023-08-07T20:06:00.264Z,99380.20
2023-08-07T20:11:05.525Z,99380.40
2023-08-07T20:16:08.237Z,99378.60
2023-08-07T20:21:15.763Z,99384.60
2023-08-07T20:26:22.084Z,99408.00
2023-08-07T20:31:28.015Z,99416.60
2023-08-07T20:36:33.400Z,99419.00
2023-08-07T20:41:36.078Z,99413.00
2023-08-07T20:46:38.873Z,99415.60
2023-08-07T20:51:41.619Z,99411.40
2023-08-07T20:56:45.538Z,99403.60
2023-08-07T21:21:30.342Z,99392.80
2023-08-07T21:26:34.891Z,99404.40
2023-08-07T21:31:37.871Z,99414.40
2023-08-07T21:36:40.552Z,99406.00
2023-08-07T21:41:43.284Z,99416.40
2023-08-07T21:46:46.081Z,99405.00
2023-08-07T21:51:50.747Z,99400.60
2023-08-07T21:56:53.522Z,99402.80
2023-08-07T22:01:59.407Z,99402.20
2023-08-07T22:07:02.621Z,99399.00
2023-08-07T22:12:06.502Z,99402.60
2023-08-07T22:17:09.139Z,99398.80
2023-08-07T22:22:28.314Z,99395.80
2023-08-07T22:27:33.874Z,99389.20
2023-08-07T22:32:37.240Z,99386.20
2023-08-07T22:37:40.292Z,99375.00
2023-08-07T22:42:42.991Z,99375.80
2023-08-07T22:47:48.592Z,99369.60
2023-08-07T22:52:51.311Z,99368.00
2023-08-07T22:57:54.012Z,99374.00
2023-08-07T23:04:21.013Z,99369.20
2023-08-07T23:09:50.032Z,99370.20
2023-08-07T23:26:54.130Z,99355.20
2023-08-07T23:32:21.895Z,99361.00
2023-08-07T23:38:02.921Z,99368.00
2023-08-07T23:43:19.536Z,99376.00
2023-08-07T23:49:03.689Z,99372.40
2023-08-07T23:55:09.584Z,99370.80
